createdAt,value
2023-01-26T00:02:28.300Z,5.40
2023-01-26T00:04:56.578Z,5.40
2023-01-26T00:07:24.912Z,5.30
2023-01-26T00:09:53.193Z,5.30
2023-01-26T00:12:21.519Z,5.30
2023-01-26T00:14:51.257Z,5.30
2023-01-26T00:17:27.053Z,5.40
2023-01-26T00:19:56.637Z,5.40
2023-01-26T00:22:27.068Z,5.30
2023-01-26T00:24:55.387Z,5.30
2023-01-26T00:27:23.774Z,5.30
2023-01-26T00:29:53.488Z,5.30
2023-01-26T00:32:21.793Z,5.40
2023-01-26T00:34:50.083Z,5.40
2023-01-26T00:37:18.366Z,5.40
2023-01-26T00:39:46.770Z,5.40
2023-01-26T00:42:16.023Z,5.40
2023-01-26T00:44:44.932Z,5.50
2023-01-26T00:47:15.446Z,5.50
2023-01-26T00:49:43.736Z,5.50
2023-01-26T00:52:12.939Z,5.50
2023-01-26T00:54:41.499Z,5.50
2023-01-26T00:57:09.944Z,5.60
2023-01-26T00:59:38.275Z,5.50
2023-01-26T01:02:06.746Z,5.60
2023-01-26T01:04:36.502Z,5.60
2023-01-26T01:07:04.854Z,5.60
2023-01-26T01:09:33.162Z,5.50
2023-01-26T01:12:01.527Z,5.60
2023-01-26T01:14:29.995Z,5.50
2023-01-26T01:16:58.291Z,5.60
2023-01-26T01:19:27.443Z,5.60
2023-01-26T01:21:57.256Z,5.60
2023-01-26T01:24:25.954Z,5.60
2023-01-26T01:26:54.215Z,5.60
2023-01-26T01:29:22.553Z,5.60
2023-01-26T01:31:50.930Z,5.50
2023-01-26T01:34:19.316Z,5.50
2023-01-26T01:36:47.692Z,5.50
2023-01-26T01:39:20.029Z,5.40
2023-01-26T01:41:48.468Z,5.40
2023-01-26T01:44:18.982Z,5.40
2023-01-26T01:46:54.916Z,5.30
2023-01-26T01:49:26.894Z,5.30
2023-01-26T01:52:01.532Z,5.30
2023-01-26T01:54:35.967Z,5.40
2023-01-26T01:57:15.890Z,5.40
2023-01-26T01:59:47.716Z,5.40
2023-01-26T02:02:16.580Z,5.40
2023-01-26T02:04:45.339Z,5.40
2023-01-26T02:07:13.766Z,5.40
2023-01-26T02:10:02.461Z,5.40
2023-01-26T02:12:33.671Z,5.40
2023-01-26T02:15:03.983Z,5.50
2023-01-26T02:17:32.401Z,5.50
2023-01-26T02:20:09.552Z,5.50
2023-01-26T02:22:45.699Z,5.50
2023-01-26T02:25:26.060Z,5.50
2023-01-26T02:27:55.803Z,5.50
2023-01-26T02:30:25.244Z,5.50
2023-01-26T02:32:54.072Z,5.50
2023-01-26T02:35:22.351Z,5.50
2023-01-26T02:37:50.728Z,5.50
2023-01-26T02:40:31.352Z,5.50
2023-01-26T02:43:00.134Z,5.50
2023-01-26T02:45:30.972Z,5.40
2023-01-26T02:48:02.545Z,5.40
2023-01-26T02:50:29.859Z,5.40
2023-01-26T02:52:58.222Z,5.30
2023-01-26T02:55:26.374Z,5.30
2023-01-26T02:57:56.483Z,5.40
2023-01-26T03:00:28.042Z,5.30
2023-01-26T03:02:58.732Z,5.30
2023-01-26T03:05:27.538Z,5.40
2023-01-26T03:07:56.262Z,5.30
2023-01-26T03:10:27.122Z,5.30
2023-01-26T03:12:55.542Z,5.30
2023-01-26T03:15:43.907Z,5.40
2023-01-26T03:18:27.675Z,5.40
2023-01-26T03:21:13.707Z,5.40
2023-01-26T03:23:59.568Z,5.40
2023-01-26T03:26:45.301Z,5.30
2023-01-26T03:29:13.792Z,5.40
2023-01-26T03:31:43.551Z,5.40
2023-01-26T03:34:12.109Z,5.40
2023-01-26T03:36:40.425Z,5.30
2023-01-26T03:39:08.864Z,5.40
2023-01-26T03:41:54.633Z,5.40
2023-01-26T03:44:40.311Z,5.40
2023-01-26T03:47:27.031Z,5.40
2023-01-26T03:50:13.278Z,5.30
2023-01-26T03:52:59.086Z,5.30
2023-01-26T03:55:44.772Z,5.30
2023-01-26T03:58:13.016Z,5.30
2023-01-26T04:00:41.395Z,5.30
2023-01-26T04:03:28.831Z,5.20
2023-01-26T04:06:17.140Z,5.20
2023-01-26T04:08:45.944Z,5.30
2023-01-26T04:11:16.552Z,5.30
2023-01-26T04:14:02.160Z,5.30
2023-01-26T04:16:47.436Z,5.20
2023-01-26T04:19:34.545Z,5.30
2023-01-26T04:22:02.801Z,5.30
2023-01-26T04:24:31.152Z,5.30
2023-01-26T04:26:59.464Z,5.30
2023-01-26T04:29:27.858Z,5.40
2023-01-26T04:31:56.134Z,5.40
2023-01-26T04:34:25.830Z,5.40
2023-01-26T04:36:54.419Z,5.40
2023-01-26T04:39:22.712Z,5.50
2023-01-26T04:41:51.026Z,5.40
2023-01-26T04:44:19.288Z,5.50
2023-01-26T04:46:48.934Z,5.40
2023-01-26T04:49:17.237Z,5.40
2023-01-26T04:51:46.922Z,5.40
2023-01-26T04:54:15.269Z,5.40
2023-01-26T04:56:43.581Z,5.30
2023-01-26T04:59:14.654Z,5.30
2023-01-26T05:01:43.177Z,5.20
2023-01-26T05:04:13.924Z,5.30
2023-01-26T05:06:43.227Z,5.30
2023-01-26T05:09:13.125Z,5.30
2023-01-26T05:11:41.451Z,5.30
2023-01-26T05:14:09.792Z,5.30
2023-01-26T05:16:38.183Z,5.20
2023-01-26T05:19:06.518Z,5.20
2023-01-26T05:21:34.803Z,5.20
2023-01-26T05:24:03.112Z,5.20
2023-01-26T05:26:32.878Z,5.20
2023-01-26T05:29:01.245Z,5.10
2023-01-26T05:31:29.683Z,5.20
2023-01-26T05:33:58.245Z,5.10
2023-01-26T05:36:26.686Z,5.10
2023-01-26T05:38:54.949Z,5.10
2023-01-26T05:41:26.120Z,5.10
2023-01-26T05:43:55.834Z,5.00
2023-01-26T05:46:24.216Z,5.00
2023-01-26T05:48:52.499Z,4.90
2023-01-26T05:51:20.801Z,5.00
2023-01-26T05:53:49.094Z,4.90
2023-01-26T05:56:17.382Z,5.00
2023-01-26T05:58:45.696Z,5.00
2023-01-26T06:01:15.423Z,5.00
2023-01-26T06:03:43.727Z,5.00
2023-01-26T06:06:12.004Z,5.00
2023-01-26T06:08:40.243Z,5.10
2023-01-26T06:11:08.733Z,5.00
2023-01-26T06:13:37.114Z,5.00
2023-01-26T06:16:05.655Z,5.00
2023-01-26T06:18:35.374Z,5.10
2023-01-26T06:21:03.721Z,5.10
2023-01-26T06:23:32.143Z,5.10
2023-01-26T06:26:00.946Z,5.10
2023-01-26T06:28:29.848Z,5.10
2023-01-26T06:31:01.619Z,5.00
2023-01-26T06:33:30.466Z,5.00
2023-01-26T06:36:02.926Z,5.00
2023-01-26T06:38:31.263Z,5.10
2023-01-26T06:41:03.185Z,5.00
2023-01-26T06:43:31.652Z,5.00
2023-01-26T06:46:00.557Z,5.00
2023-01-26T06:48:30.729Z,4.90
2023-01-26T06:51:07.266Z,4.90
2023-01-26T06:53:38.879Z,4.90
2023-01-26T06:56:07.506Z,5.00
2023-01-26T06:58:35.804Z,5.00
2023-01-26T07:01:04.158Z,5.00
2023-01-26T07:03:32.660Z,5.00
2023-01-26T07:06:02.553Z,5.00
2023-01-26T07:08:30.818Z,5.10
2023-01-26T07:10:59.165Z,5.20
2023-01-26T07:13:27.681Z,5.20
2023-01-26T07:16:12.294Z,5.20
2023-01-26T07:18:43.340Z,5.30
2023-01-26T07:21:15.196Z,5.30
2023-01-26T07:23:43.723Z,5.30
2023-01-26T07:26:12.402Z,5.30
2023-01-26T07:28:40.831Z,5.40
2023-01-26T07:31:11.901Z,5.30
2023-01-26T07:33:40.390Z,5.40
2023-01-26T07:36:08.963Z,5.30
2023-01-26T07:38:38.850Z,5.40
2023-01-26T07:41:10.422Z,5.30
2023-01-26T07:43:40.103Z,5.40
2023-01-26T07:58:05.579Z,5.40
2023-01-26T08:00:33.860Z,5.50
2023-01-26T08:03:02.270Z,5.40
2023-01-26T08:05:30.647Z,5.50
2023-01-26T08:07:59.629Z,5.40
2023-01-26T08:10:28.246Z,5.50
2023-01-26T08:12:56.631Z,5.50
2023-01-26T08:15:26.398Z,5.50
2023-01-26T08:17:55.605Z,5.50
2023-01-26T08:20:24.486Z,5.50
2023-01-26T08:22:52.802Z,5.50
2023-01-26T08:25:21.107Z,5.50
2023-01-26T08:27:49.419Z,5.50
2023-01-26T08:30:18.738Z,5.40
2023-01-26T08:32:48.488Z,5.50
2023-01-26T08:35:16.969Z,5.40
2023-01-26T08:37:45.332Z,5.40
2023-01-26T08:40:14.694Z,5.40
2023-01-26T08:42:43.049Z,5.30
2023-01-26T08:45:12.294Z,5.40
2023-01-26T08:47:40.594Z,5.30
2023-01-26T08:50:11.893Z,5.30
2023-01-26T08:52:40.443Z,5.30
2023-01-26T08:55:09.393Z,5.40
2023-01-26T08:57:37.712Z,5.40
2023-01-26T09:00:07.340Z,5.40
2023-01-26T09:02:35.788Z,5.40
2023-01-26T09:05:05.553Z,5.40
2023-01-26T09:07:35.271Z,5.40
2023-01-26T09:10:03.533Z,5.40
2023-01-26T09:12:31.857Z,5.40
2023-01-26T09:15:00.183Z,5.40
2023-01-26T09:17:28.566Z,5.40
2023-01-26T09:19:56.876Z,5.30
2023-01-26T09:22:25.184Z,5.40
2023-01-26T09:24:54.869Z,5.30
2023-01-26T09:27:23.223Z,5.30
2023-01-26T09:29:52.269Z,5.30
2023-01-26T09:32:21.152Z,5.30
2023-01-26T09:34:49.928Z,5.20
2023-01-26T09:37:18.681Z,5.20
2023-01-26T09:39:49.713Z,5.20
2023-01-26T09:42:50.836Z,5.30
2023-01-26T09:45:32.436Z,5.30
2023-01-26T09:48:16.731Z,5.40
2023-01-26T09:50:49.868Z,5.50
2023-01-26T09:53:21.385Z,5.50
2023-01-26T09:55:50.499Z,5.60
2023-01-26T09:58:29.449Z,5.60
2023-01-26T10:01:02.343Z,5.60
2023-01-26T10:03:36.918Z,5.60
2023-01-26T10:06:14.716Z,5.70
2023-01-26T10:08:44.796Z,5.70
2023-01-26T10:11:20.883Z,5.70
2023-01-26T10:13:57.033Z,5.70
2023-01-26T10:16:25.472Z,5.70
2023-01-26T10:18:59.407Z,5.70
2023-01-26T10:21:33.400Z,5.70
2023-01-26T10:24:03.420Z,5.70
2023-01-26T10:26:33.771Z,5.60
2023-01-26T10:29:05.288Z,5.60
2023-01-26T10:31:35.396Z,5.70
2023-01-26T10:34:14.106Z,5.70
2023-01-26T10:36:45.136Z,5.70
2023-01-26T10:39:15.625Z,5.70
2023-01-26T10:41:58.280Z,5.70
2023-01-26T10:44:33.912Z,5.70
2023-01-26T10:47:08.548Z,5.80
2023-01-26T10:49:36.867Z,5.70
2023-01-26T10:52:17.456Z,5.70
2023-01-26T10:54:46.544Z,5.70
2023-01-26T10:57:28.120Z,5.70
2023-01-26T10:59:59.818Z,5.60
2023-01-26T11:02:30.225Z,5.60
2023-01-26T11:05:23.328Z,5.60
2023-01-26T11:07:55.348Z,5.50
2023-01-26T11:10:32.803Z,5.60
2023-01-26T11:13:16.714Z,5.50
2023-01-26T11:15:48.902Z,5.60
2023-01-26T11:18:42.645Z,5.50
2023-01-26T11:21:18.874Z,5.50
2023-01-26T11:24:01.904Z,5.60
2023-01-26T11:26:59.882Z,5.60
2023-01-26T11:29:47.800Z,5.60
2023-01-26T11:32:27.356Z,5.60
2023-01-26T11:35:07.154Z,5.70
2023-01-26T11:37:41.319Z,5.70
2023-01-26T11:40:33.404Z,5.70
2023-01-26T11:43:17.762Z,5.70
2023-01-26T11:46:12.306Z,5.70
2023-01-26T11:48:52.831Z,5.70
2023-01-26T12:04:48.130Z,5.70
2023-01-26T12:07:24.288Z,5.90
2023-01-26T12:09:53.367Z,5.90
2023-01-26T12:12:29.768Z,5.90
2023-01-26T12:15:05.878Z,5.90
2023-01-26T12:17:44.546Z,5.80
2023-01-26T12:20:29.225Z,5.80
2023-01-26T12:23:04.710Z,5.80
2023-01-26T12:25:36.266Z,5.80
2023-01-26T12:28:15.850Z,5.90
2023-01-26T12:30:53.494Z,5.90
2023-01-26T12:33:22.208Z,5.90
2023-01-26T12:36:09.511Z,5.90
2023-01-26T12:38:57.404Z,5.90
2023-01-26T12:41:36.722Z,6.00
2023-01-26T12:44:27.233Z,6.00
2023-01-26T12:47:00.846Z,6.00
2023-01-26T12:49:38.519Z,6.00
2023-01-26T12:52:13.592Z,6.00
2023-01-26T12:54:45.934Z,6.00
2023-01-26T12:57:19.146Z,6.00
2023-01-26T12:59:49.227Z,6.00
2023-01-26T13:02:28.179Z,6.00
2023-01-26T13:04:57.988Z,6.00
2023-01-26T13:07:33.885Z,6.00
2023-01-26T13:10:25.469Z,6.00
2023-01-26T13:12:56.184Z,6.00
2023-01-26T13:15:26.338Z,6.00
2023-01-26T13:17:57.115Z,5.90
2023-01-26T13:20:48.497Z,5.90
2023-01-26T13:23:43.606Z,5.90
2023-01-26T13:26:33.159Z,6.00
2023-01-26T13:29:33.116Z,6.00
2023-01-26T13:32:22.937Z,5.90
2023-01-26T13:34:54.851Z,6.00
2023-01-26T13:37:29.574Z,5.90
2023-01-26T13:40:03.875Z,6.00
2023-01-26T13:42:39.066Z,5.90
2023-01-26T13:45:18.116Z,6.00
2023-01-26T13:47:50.444Z,5.90
2023-01-26T13:50:30.786Z,5.80
2023-01-26T13:52:59.309Z,5.90
2023-01-26T13:55:31.620Z,5.90
2023-01-26T13:58:13.108Z,6.00
2023-01-26T14:00:41.636Z,5.90
2023-01-26T14:03:22.714Z,5.90
2023-01-26T14:05:57.301Z,5.90
2023-01-26T14:08:26.236Z,5.90
2023-01-26T14:11:05.953Z,6.00
2023-01-26T14:13:37.607Z,6.00
2023-01-26T14:16:07.781Z,6.10
2023-01-26T14:18:36.129Z,6.10
2023-01-26T14:21:06.720Z,6.10
2023-01-26T14:23:37.628Z,6.10
2023-01-26T14:26:13.682Z,6.10
2023-01-26T14:28:44.284Z,6.20
2023-01-26T14:31:18.250Z,6.20
2023-01-26T14:33:46.678Z,6.20
2023-01-26T14:36:17.258Z,6.20
2023-01-26T14:38:48.572Z,6.20
2023-01-26T14:41:23.440Z,6.10
2023-01-26T14:43:56.060Z,6.20
2023-01-26T14:46:30.410Z,6.20
2023-01-26T14:49:02.029Z,6.20
2023-01-26T14:51:32.287Z,6.20
2023-01-26T14:54:02.550Z,6.10
2023-01-26T14:56:36.544Z,6.20
2023-01-26T14:59:06.161Z,6.10
2023-01-26T15:01:35.121Z,6.20
2023-01-26T15:04:06.095Z,6.20
2023-01-26T15:06:34.922Z,6.20
2023-01-26T15:09:06.574Z,6.20
2023-01-26T15:11:55.980Z,6.20
2023-01-26T15:14:37.061Z,6.10
2023-01-26T15:17:06.016Z,6.10
2023-01-26T15:19:41.465Z,6.10
2023-01-26T15:22:22.368Z,6.10
2023-01-26T15:25:04.632Z,6.10
2023-01-26T15:27:36.381Z,6.10
2023-01-26T15:30:06.652Z,6.10
2023-01-26T15:32:42.860Z,6.10
2023-01-26T15:35:24.035Z,6.10
2023-01-26T15:38:03.065Z,6.20
2023-01-26T15:40:32.167Z,6.20
2023-01-26T15:43:12.919Z,6.10
2023-01-26T15:45:43.539Z,6.20
2023-01-26T15:48:11.844Z,6.20
2023-01-26T15:50:40.110Z,6.20
2023-01-26T15:53:14.054Z,6.20
2023-01-26T15:55:44.217Z,6.20
2023-01-26T15:58:13.946Z,6.20
2023-01-26T16:00:42.291Z,6.20
2023-01-26T16:03:16.251Z,6.20
2023-01-26T16:05:47.821Z,6.20
2023-01-26T16:08:16.438Z,6.20
2023-01-26T16:10:45.084Z,6.20
2023-01-26T16:13:17.712Z,6.30
2023-01-26T16:15:47.947Z,6.30
2023-01-26T16:18:16.278Z,6.30
2023-01-26T16:20:46.885Z,6.30
2023-01-26T16:23:20.223Z,6.30
2023-01-26T16:25:52.067Z,6.40
2023-01-26T16:28:22.320Z,6.40
2023-01-26T16:30:51.866Z,6.40
2023-01-26T16:33:22.144Z,6.40
2023-01-26T16:35:50.422Z,6.50
2023-01-26T16:38:18.693Z,6.50
2023-01-26T16:40:49.548Z,6.50
2023-01-26T16:43:23.937Z,6.50
2023-01-26T16:45:52.858Z,6.50
2023-01-26T16:48:21.722Z,6.50
2023-01-26T16:50:53.829Z,6.50
2023-01-26T16:53:26.708Z,6.50
2023-01-26T16:55:55.461Z,6.50
2023-01-26T16:58:26.603Z,6.60
2023-01-26T17:00:55.841Z,6.60
2023-01-26T17:03:24.586Z,6.60
2023-01-26T17:05:53.035Z,6.70
2023-01-26T17:08:21.345Z,6.70
2023-01-26T17:11:01.588Z,6.70
2023-01-26T17:13:32.409Z,6.80
2023-01-26T17:16:00.768Z,6.80
2023-01-26T17:18:29.103Z,6.80
2023-01-26T17:21:03.863Z,6.90
2023-01-26T17:23:32.497Z,6.80
2023-01-26T17:26:01.453Z,6.90
2023-01-26T17:28:31.199Z,6.90
2023-01-26T17:31:01.382Z,6.90
2023-01-26T17:33:30.949Z,6.90
2023-01-26T17:36:02.831Z,7.00
2023-01-26T17:38:31.189Z,6.90
2023-01-26T17:41:00.466Z,7.00
2023-01-26T17:43:29.017Z,7.00
2023-01-26T17:46:06.381Z,7.00
2023-01-26T17:48:36.440Z,7.00
2023-01-26T17:51:07.554Z,7.10
2023-01-26T17:53:39.297Z,7.00
2023-01-26T17:56:08.807Z,7.00
2023-01-26T17:58:37.361Z,7.10
2023-01-26T18:01:08.413Z,7.10
2023-01-26T18:03:40.702Z,7.10
2023-01-26T18:06:09.339Z,7.10
2023-01-26T18:08:38.706Z,7.10
2023-01-26T18:11:09.172Z,7.10
2023-01-26T18:13:37.708Z,7.10
2023-01-26T18:16:09.226Z,7.10
2023-01-26T18:18:37.928Z,7.10
2023-01-26T18:21:14.174Z,7.10
2023-01-26T18:23:45.823Z,7.10
2023-01-26T18:26:14.416Z,7.10
2023-01-26T18:28:43.320Z,7.10
2023-01-26T18:31:14.660Z,7.10
2023-01-26T18:33:43.334Z,7.00
2023-01-26T18:36:13.976Z,7.10
2023-01-26T18:38:43.463Z,7.10
2023-01-26T18:41:12.378Z,7.10
2023-01-26T18:43:41.149Z,7.10
2023-01-26T18:46:10.142Z,7.00
2023-01-26T18:48:39.853Z,7.00
2023-01-26T18:51:08.745Z,7.00
2023-01-26T18:53:38.688Z,7.00
2023-01-26T18:56:09.124Z,7.00
2023-01-26T18:58:38.824Z,7.00
2023-01-26T19:01:11.480Z,6.90
2023-01-26T19:03:47.349Z,6.80
2023-01-26T19:06:18.318Z,6.80
2023-01-26T19:08:47.140Z,6.80
2023-01-26T19:11:15.783Z,6.90
2023-01-26T19:13:48.871Z,6.90
2023-01-26T19:16:17.336Z,6.90
2023-01-26T19:18:47.077Z,6.90
2023-01-26T19:21:15.568Z,6.90
2023-01-26T19:23:43.929Z,6.90
2023-01-26T19:26:13.447Z,6.90
2023-01-26T19:28:42.189Z,6.90
2023-01-26T19:31:11.250Z,6.90
2023-01-26T19:33:39.980Z,6.90
2023-01-26T19:36:10.297Z,6.90
2023-01-26T19:38:40.248Z,6.90
2023-01-26T19:41:08.732Z,6.90
2023-01-26T19:43:37.169Z,6.90
2023-01-26T19:46:08.422Z,6.90
2023-01-26T19:48:36.962Z,6.90
2023-01-26T19:51:06.531Z,6.90
2023-01-26T19:53:37.890Z,6.90
2023-01-26T19:56:07.489Z,6.80
2023-01-26T19:58:36.238Z,6.80
2023-01-26T20:01:07.092Z,6.90
2023-01-26T20:03:36.342Z,6.80
2023-01-26T20:06:05.697Z,6.80
2023-01-26T20:08:35.502Z,6.70
2023-01-26T20:11:05.097Z,6.70
2023-01-26T20:13:33.846Z,6.60
2023-01-26T20:16:03.701Z,6.70
2023-01-26T20:18:32.925Z,6.70
2023-01-26T20:21:01.341Z,6.70
2023-01-26T20:23:30.143Z,6.70
2023-01-26T20:26:10.530Z,6.70
2023-01-26T20:28:40.225Z,6.70
2023-01-26T20:31:10.470Z,6.70
2023-01-26T20:33:40.107Z,6.70
2023-01-26T20:36:11.095Z,6.60
2023-01-26T20:38:39.598Z,6.60
2023-01-26T20:41:11.021Z,6.60
2023-01-26T20:43:49.478Z,6.60
2023-01-26T20:46:21.679Z,6.60
2023-01-26T20:48:49.938Z,6.60
2023-01-26T20:51:20.406Z,6.60
2023-01-26T20:53:50.167Z,6.60
2023-01-26T20:56:22.801Z,6.60
2023-01-26T20:58:53.878Z,6.60
2023-01-26T21:01:23.465Z,6.60
2023-01-26T21:03:52.205Z,6.60
2023-01-26T21:06:21.988Z,6.60
2023-01-26T21:08:53.508Z,6.60
2023-01-26T21:11:24.836Z,6.60
2023-01-26T21:13:53.815Z,6.60
2023-01-26T21:16:23.132Z,6.60
2023-01-26T21:18:51.767Z,6.60
2023-01-26T21:21:21.695Z,6.60
2023-01-26T21:23:51.358Z,6.60
2023-01-26T21:26:26.849Z,6.60
2023-01-26T21:28:56.810Z,6.60
2023-01-26T21:31:28.079Z,6.60
2023-01-26T21:33:57.085Z,6.50
2023-01-26T21:36:27.276Z,6.50
2023-01-26T21:38:57.816Z,6.50
2023-01-26T21:41:46.034Z,6.50
2023-01-26T21:44:16.590Z,6.50
2023-01-26T21:46:46.550Z,6.50
2023-01-26T21:49:15.544Z,6.50
2023-01-26T21:52:01.377Z,6.40
2023-01-26T21:54:30.159Z,6.40
2023-01-26T21:57:00.473Z,6.40
2023-01-26T21:59:29.227Z,6.40
2023-01-26T22:01:58.788Z,6.40
2023-01-26T22:04:29.490Z,6.30
2023-01-26T22:06:58.384Z,6.30
2023-01-26T22:09:27.009Z,6.40
2023-01-26T22:11:55.272Z,6.30
2023-01-26T22:14:26.274Z,6.40
2023-01-26T22:16:54.891Z,6.30
2023-01-26T22:19:23.203Z,6.30
2023-01-26T22:21:51.554Z,6.30
2023-01-26T22:24:20.055Z,6.30
2023-01-26T22:26:48.897Z,6.30
2023-01-26T22:29:17.254Z,6.30
2023-01-26T22:31:47.087Z,6.30
2023-01-26T22:34:15.548Z,6.30
2023-01-26T22:36:43.897Z,6.20
2023-01-26T22:39:12.898Z,6.20
2023-01-26T22:41:41.246Z,6.20
2023-01-26T22:44:10.004Z,6.20
2023-01-26T22:46:38.587Z,6.10
2023-01-26T22:49:08.279Z,6.00
2023-01-26T22:51:37.672Z,6.10
2023-01-26T22:54:06.711Z,6.00
2023-01-26T22:56:35.171Z,6.00
2023-01-26T22:59:03.534Z,6.00
2023-01-26T23:01:33.951Z,6.00
2023-01-26T23:04:02.918Z,6.00
2023-01-26T23:06:32.724Z,6.00
2023-01-26T23:09:04.655Z,6.00
2023-01-26T23:11:33.166Z,5.90
2023-01-26T23:14:01.859Z,5.90
2023-01-26T23:16:30.809Z,5.90
2023-01-26T23:19:00.581Z,5.90
2023-01-26T23:21:30.163Z,5.90
2023-01-26T23:23:59.853Z,5.90
2023-01-26T23:26:28.281Z,5.90
2023-01-26T23:28:56.630Z,5.90
2023-01-26T23:31:24.980Z,5.80
2023-01-26T23:33:53.375Z,5.80
2023-01-26T23:36:21.978Z,5.80
2023-01-26T23:38:50.306Z,5.80
2023-01-26T23:41:20.337Z,5.70
2023-01-26T23:43:48.593Z,5.70
2023-01-26T23:46:17.076Z,5.70
2023-01-26T23:48:45.407Z,5.60
2023-01-26T23:51:14.062Z,5.60
2023-01-26T23:53:42.528Z,5.50
2023-01-26T23:56:13.743Z,5.50
2023-01-26T23:58:43.692Z,5.50
